sensor_id;sensor_type;location;lat;lon;timestamp;temperature;humidity
63283;DHT22;49407;51.388;0.048;2022-12-04T00:01:45;5.80;99.90
63283;DHT22;49407;51.388;0.048;2022-12-04T00:04:11;5.80;99.90
63283;DHT22;49407;51.388;0.048;2022-12-04T00:06:41;5.80;99.90
63283;DHT22;49407;51.388;0.048;2022-12-04T00:09:08;5.70;99.90
63283;DHT22;49407;51.388;0.048;2022-12-04T00:11:35;5.70;99.90
63283;DHT22;49407;51.388;0.048;2022-12-04T00:14:02;5.80;99.90
63283;DHT22;49407;51.388;0.048;2022-12-04T00:16:33;5.80;99.90
63283;DHT22;49407;51.388;0.048;2022-12-04T00:19:01;5.70;99.90
63283;DHT22;49407;51.388;0.048;2022-12-04T00:21:28;5.70;99.90
63283;DHT22;49407;51.388;0.048;2022-12-04T00:23:55;5.70;99.90
63283;DHT22;49407;51.388;0.048;2022-12-04T00:26:24;5.70;99.90
63283;DHT22;49407;51.388;0.048;2022-12-04T00:28:53;5.80;99.90
63283;DHT22;49407;51.388;0.048;2022-12-04T00:31:22;5.80;99.90
63283;DHT22;49407;51.388;0.048;2022-12-04T00:33:50;5.80;99.90
63283;DHT22;49407;51.388;0.048;2022-12-04T00:36:19;5.80;99.90
63283;DHT22;49407;51.388;0.048;2022-12-04T00:38:47;5.80;99.90
63283;DHT22;49407;51.388;0.048;2022-12-04T00:41:17;5.80;99.90
63283;DHT22;49407;51.388;0.048;2022-12-04T00:43:44;5.80;99.90
63283;DHT22;49407;51.388;0.048;2022-12-04T00:46:12;5.80;99.90
63283;DHT22;49407;51.388;0.048;2022-12-04T00:48:41;5.80;99.90
63283;DHT22;49407;51.388;0.048;2022-12-04T00:51:11;5.70;99.90
63283;DHT22;49407;51.388;0.048;2022-12-04T00:53:38;5.70;99.90
63283;DHT22;49407;51.388;0.048;2022-12-04T00:56:10;5.70;99.90
63283;DHT22;49407;51.388;0.048;2022-12-04T00:58:39;5.70;99.90
63283;DHT22;49407;51.388;0.048;2022-12-04T01:01:12;5.80;99.90
63283;DHT22;49407;51.388;0.048;2022-12-04T01:03:40;5.70;99.90
63283;DHT22;49407;51.388;0.048;2022-12-04T01:06:21;5.70;99.90
63283;DHT22;49407;51.388;0.048;2022-12-04T01:08:51;5.70;99.90
63283;DHT22;49407;51.388;0.048;2022-12-04T01:11:19;5.80;99.90
63283;DHT22;49407;51.388;0.048;2022-12-04T01:13:47;5.80;99.90
63283;DHT22;49407;51.388;0.048;2022-12-04T01:16:16;5.80;99.90
63283;DHT22;49407;51.388;0.048;2022-12-04T01:18:46;5.70;99.90
63283;DHT22;49407;51.388;0.048;2022-12-04T01:21:14;5.70;99.90
63283;DHT22;49407;51.388;0.048;2022-12-04T01:23:41;5.70;99.90
63283;DHT22;49407;51.388;0.048;2022-12-04T01:26:08;5.80;99.90
63283;DHT22;49407;51.388;0.048;2022-12-04T01:28:36;5.70;99.90
63283;DHT22;49407;51.388;0.048;2022-12-04T01:31:04;5.80;99.90
63283;DHT22;49407;51.388;0.048;2022-12-04T01:33:33;5.70;99.90
63283;DHT22;49407;51.388;0.048;2022-12-04T01:36:01;5.80;99.90
63283;DHT22;49407;51.388;0.048;2022-12-04T01:38:30;5.70;99.90
63283;DHT22;49407;51.388;0.048;2022-12-04T01:40:57;5.70;99.90
63283;DHT22;49407;51.388;0.048;2022-12-04T01:43:25;5.70;99.90
63283;DHT22;49407;51.388;0.048;2022-12-04T01:45:54;5.70;99.90
63283;DHT22;49407;51.388;0.048;2022-12-04T01:48:51;5.80;99.90
63283;DHT22;49407;51.388;0.048;2022-12-04T01:51:23;5.80;99.90
63283;DHT22;49407;51.388;0.048;2022-12-04T01:53:58;5.80;99.90
63283;DHT22;49407;51.388;0.048;2022-12-04T01:56:32;5.80;99.90
63283;DHT22;49407;51.388;0.048;2022-12-04T01:59:02;5.70;99.90
63283;DHT22;49407;51.388;0.048;2022-12-04T02:01:37;5.70;99.90
63283;DHT22;49407;51.388;0.048;2022-12-04T02:04:05;5.70;99.90
63283;DHT22;49407;51.388;0.048;2022-12-04T02:06:33;5.70;99.90
63283;DHT22;49407;51.388;0.048;2022-12-04T02:09:00;5.70;99.90
63283;DHT22;49407;51.388;0.048;2022-12-04T02:11:49;5.70;99.90
63283;DHT22;49407;51.388;0.048;2022-12-04T02:17:09;5.70;99.90
63283;DHT22;49407;51.388;0.048;2022-12-04T02:31:21;5.70;99.90
63283;DHT22;49407;51.388;0.048;2022-12-04T02:34:20;5.70;99.90
63283;DHT22;49407;51.388;0.048;2022-12-04T02:37:16;5.70;99.90
63283;DHT22;49407;51.388;0.048;2022-12-04T02:39:58;5.70;99.90
63283;DHT22;49407;51.388;0.048;2022-12-04T02:45:05;5.60;99.90
63283;DHT22;49407;51.388;0.048;2022-12-04T02:47:35;5.60;99.90
63283;DHT22;49407;51.388;0.048;2022-12-04T02:50:22;5.60;99.90
63283;DHT22;49407;51.388;0.048;2022-12-04T02:53:19;5.60;99.90
63283;DHT22;49407;51.388;0.048;2022-12-04T02:55:51;5.70;99.90
63283;DHT22;49407;51.388;0.048;2022-12-04T02:59:01;5.70;99.90
63283;DHT22;49407;51.388;0.048;2022-12-04T03:01:30;5.70;99.90
63283;DHT22;49407;51.388;0.048;2022-12-04T03:04:11;5.60;99.90
63283;DHT22;49407;51.388;0.048;2022-12-04T03:06:43;5.60;99.90
63283;DHT22;49407;51.388;0.048;2022-12-04T03:12:18;5.50;99.90
63283;DHT22;49407;51.388;0.048;2022-12-04T03:14:51;5.60;99.90
63283;DHT22;49407;51.388;0.048;2022-12-04T03:17:33;5.60;99.90
63283;DHT22;49407;51.388;0.048;2022-12-04T03:20:05;5.60;99.90
63283;DHT22;49407;51.388;0.048;2022-12-04T03:22:37;5.50;99.90
63283;DHT22;49407;51.388;0.048;2022-12-04T03:25:06;5.50;99.90
63283;DHT22;49407;51.388;0.048;2022-12-04T03:30:21;5.60;99.90
63283;DHT22;49407;51.388;0.048;2022-12-04T03:33:11;5.50;99.90
63283;DHT22;49407;51.388;0.048;2022-12-04T03:36:07;5.40;99.90
63283;DHT22;49407;51.388;0.048;2022-12-04T03:41:23;5.50;99.90
63283;DHT22;49407;51.388;0.048;2022-12-04T03:49:48;5.40;99.90
63283;DHT22;49407;51.388;0.048;2022-12-04T03:52:26;5.40;99.90
63283;DHT22;49407;51.388;0.048;2022-12-04T03:55:02;5.40;99.90
63283;DHT22;49407;51.388;0.048;2022-12-04T03:57:37;5.40;99.90
63283;DHT22;49407;51.388;0.048;2022-12-04T04:00:15;5.40;99.90
63283;DHT22;49407;51.388;0.048;2022-12-04T04:02:57;5.40;99.90
63283;DHT22;49407;51.388;0.048;2022-12-04T04:05:26;5.30;99.90
63283;DHT22;49407;51.388;0.048;2022-12-04T04:08:21;5.40;99.90
63283;DHT22;49407;51.388;0.048;2022-12-04T04:10:56;5.30;99.90
63283;DHT22;49407;51.388;0.048;2022-12-04T04:13:31;5.30;99.90
63283;DHT22;49407;51.388;0.048;2022-12-04T04:16:19;5.30;99.90
63283;DHT22;49407;51.388;0.048;2022-12-04T04:19:06;5.40;99.90
63283;DHT22;49407;51.388;0.048;2022-12-04T04:21:54;5.40;99.90
63283;DHT22;49407;51.388;0.048;2022-12-04T04:24:46;5.40;99.90
63283;DHT22;49407;51.388;0.048;2022-12-04T04:27:35;5.40;99.90
63283;DHT22;49407;51.388;0.048;2022-12-04T04:30:03;5.30;99.90
63283;DHT22;49407;51.388;0.048;2022-12-04T04:33:19;5.40;99.90
63283;DHT22;49407;51.388;0.048;2022-12-04T04:38:07;5.30;99.90
63283;DHT22;49407;51.388;0.048;2022-12-04T04:40:43;5.30;99.90
63283;DHT22;49407;51.388;0.048;2022-12-04T04:43:19;5.30;99.90
63283;DHT22;49407;51.388;0.048;2022-12-04T04:46:13;5.40;99.90
63283;DHT22;49407;51.388;0.048;2022-12-04T04:48:43;5.40;99.90
63283;DHT22;49407;51.388;0.048;2022-12-04T04:51:13;5.30;99.90
63283;DHT22;49407;51.388;0.048;2022-12-04T04:53:44;5.30;99.90
63283;DHT22;49407;51.388;0.048;2022-12-04T04:56:12;5.30;99.90
63283;DHT22;49407;51.388;0.048;2022-12-04T04:58:42;5.30;99.90
63283;DHT22;49407;51.388;0.048;2022-12-04T05:01:15;5.30;99.90
63283;DHT22;49407;51.388;0.048;2022-12-04T05:03:43;5.30;99.90
63283;DHT22;49407;51.388;0.048;2022-12-04T05:06:10;5.30;99.90
63283;DHT22;49407;51.388;0.048;2022-12-04T05:08:38;5.40;99.90
63283;DHT22;49407;51.388;0.048;2022-12-04T05:11:09;5.30;99.90
63283;DHT22;49407;51.388;0.048;2022-12-04T05:13:37;5.40;99.90
63283;DHT22;49407;51.388;0.048;2022-12-04T05:16:06;5.30;99.90
63283;DHT22;49407;51.388;0.048;2022-12-04T05:18:34;5.40;99.90
63283;DHT22;49407;51.388;0.048;2022-12-04T05:21:09;5.40;99.90
63283;DHT22;49407;51.388;0.048;2022-12-04T05:23:43;5.40;99.90
63283;DHT22;49407;51.388;0.048;2022-12-04T05:26:10;5.40;99.90
63283;DHT22;49407;51.388;0.048;2022-12-04T05:31:42;5.40;99.90
63283;DHT22;49407;51.388;0.048;2022-12-04T05:34:09;5.40;99.90
63283;DHT22;49407;51.388;0.048;2022-12-04T05:36:36;5.40;99.90
63283;DHT22;49407;51.388;0.048;2022-12-04T05:39:03;5.40;99.90
63283;DHT22;49407;51.388;0.048;2022-12-04T05:41:30;5.40;99.90
63283;DHT22;49407;51.388;0.048;2022-12-04T05:43:57;5.40;99.90
63283;DHT22;49407;51.388;0.048;2022-12-04T05:46:24;5.40;99.90
63283;DHT22;49407;51.388;0.048;2022-12-04T05:48:51;5.40;99.90
63283;DHT22;49407;51.388;0.048;2022-12-04T05:51:18;5.40;99.90
63283;DHT22;49407;51.388;0.048;2022-12-04T05:53:44;5.50;99.90
63283;DHT22;49407;51.388;0.048;2022-12-04T05:56:11;5.40;99.90
63283;DHT22;49407;51.388;0.048;2022-12-04T05:58:38;5.50;99.90
63283;DHT22;49407;51.388;0.048;2022-12-04T06:01:15;5.50;99.90
63283;DHT22;49407;51.388;0.048;2022-12-04T06:03:42;5.50;99.90
63283;DHT22;49407;51.388;0.048;2022-12-04T06:06:20;5.50;99.90
63283;DHT22;49407;51.388;0.048;2022-12-04T06:08:51;5.50;99.90
63283;DHT22;49407;51.388;0.048;2022-12-04T06:11:24;5.50;99.90
63283;DHT22;49407;51.388;0.048;2022-12-04T06:13:51;5.50;99.90
63283;DHT22;49407;51.388;0.048;2022-12-04T06:16:30;5.50;99.90
63283;DHT22;49407;51.388;0.048;2022-12-04T06:19:00;5.50;99.90
63283;DHT22;49407;51.388;0.048;2022-12-04T06:21:30;5.60;99.90
63283;DHT22;49407;51.388;0.048;2022-12-04T06:23:57;5.50;99.90
63283;DHT22;49407;51.388;0.048;2022-12-04T06:26:25;5.50;99.90
63283;DHT22;49407;51.388;0.048;2022-12-04T06:28:53;5.50;99.90
63283;DHT22;49407;51.388;0.048;2022-12-04T06:31:20;5.50;99.90
63283;DHT22;49407;51.388;0.048;2022-12-04T06:33:47;5.50;99.90
63283;DHT22;49407;51.388;0.048;2022-12-04T06:36:16;5.50;99.90
63283;DHT22;49407;51.388;0.048;2022-12-04T06:38:50;5.50;99.90
63283;DHT22;49407;51.388;0.048;2022-12-04T06:41:19;5.50;99.90
63283;DHT22;49407;51.388;0.048;2022-12-04T06:43:46;5.50;99.90
63283;DHT22;49407;51.388;0.048;2022-12-04T06:46:23;5.50;99.90
63283;DHT22;49407;51.388;0.048;2022-12-04T06:48:50;5.50;99.90
63283;DHT22;49407;51.388;0.048;2022-12-04T06:51:21;5.50;99.90
63283;DHT22;49407;51.388;0.048;2022-12-04T06:53:48;5.50;99.90
63283;DHT22;49407;51.388;0.048;2022-12-04T06:56:18;5.50;99.90
63283;DHT22;49407;51.388;0.048;2022-12-04T06:58:51;5.40;99.90
63283;DHT22;49407;51.388;0.048;2022-12-04T07:01:21;5.50;99.90
63283;DHT22;49407;51.388;0.048;2022-12-04T07:03:49;5.40;99.90
63283;DHT22;49407;51.388;0.048;2022-12-04T07:06:21;5.40;99.90
63283;DHT22;49407;51.388;0.048;2022-12-04T07:11:53;5.40;99.90
63283;DHT22;49407;51.388;0.048;2022-12-04T07:14:20;5.40;99.90
63283;DHT22;49407;51.388;0.048;2022-12-04T07:16:47;5.40;99.90
63283;DHT22;49407;51.388;0.048;2022-12-04T07:19:14;5.40;99.90
63283;DHT22;49407;51.388;0.048;2022-12-04T07:21:42;5.40;99.90
63283;DHT22;49407;51.388;0.048;2022-12-04T07:24:14;5.40;99.90
63283;DHT22;49407;51.388;0.048;2022-12-04T07:26:41;5.40;99.90
63283;DHT22;49407;51.388;0.048;2022-12-04T07:29:07;5.40;99.90
63283;DHT22;49407;51.388;0.048;2022-12-04T07:31:37;5.40;99.90
63283;DHT22;49407;51.388;0.048;2022-12-04T07:34:04;5.40;99.90
63283;DHT22;49407;51.388;0.048;2022-12-04T07:36:58;5.40;99.90
63283;DHT22;49407;51.388;0.048;2022-12-04T07:39:25;5.40;99.90
63283;DHT22;49407;51.388;0.048;2022-12-04T07:41:52;5.40;99.90
63283;DHT22;49407;51.388;0.048;2022-12-04T07:44:19;5.40;99.90
63283;DHT22;49407;51.388;0.048;2022-12-04T07:46:47;5.40;99.90
63283;DHT22;49407;51.388;0.048;2022-12-04T07:49:14;5.40;99.90
63283;DHT22;49407;51.388;0.048;2022-12-04T07:51:42;5.40;99.90
63283;DHT22;49407;51.388;0.048;2022-12-04T07:54:09;5.30;99.90
63283;DHT22;49407;51.388;0.048;2022-12-04T07:56:35;5.30;99.90
63283;DHT22;49407;51.388;0.048;2022-12-04T07:59:02;5.40;99.90
63283;DHT22;49407;51.388;0.048;2022-12-04T08:01:30;5.30;99.90
63283;DHT22;49407;51.388;0.048;2022-12-04T08:03:58;5.40;99.90
63283;DHT22;49407;51.388;0.048;2022-12-04T08:06:27;5.40;99.90
63283;DHT22;49407;51.388;0.048;2022-12-04T08:08:55;5.40;99.90
63283;DHT22;49407;51.388;0.048;2022-12-04T08:11:25;5.40;99.90
63283;DHT22;49407;51.388;0.048;2022-12-04T08:14:00;5.40;99.90
63283;DHT22;49407;51.388;0.048;2022-12-04T08:16:30;5.40;99.90
63283;DHT22;49407;51.388;0.048;2022-12-04T08:18:58;5.30;99.90
63283;DHT22;49407;51.388;0.048;2022-12-04T08:21:28;5.40;99.90
63283;DHT22;49407;51.388;0.048;2022-12-04T08:23:56;5.30;99.90
63283;DHT22;49407;51.388;0.048;2022-12-04T08:26:25;5.40;99.90
63283;DHT22;49407;51.388;0.048;2022-12-04T08:28:53;5.40;99.90
63283;DHT22;49407;51.388;0.048;2022-12-04T08:31:23;5.40;99.90
63283;DHT22;49407;51.388;0.048;2022-12-04T08:33:53;5.40;99.90
63283;DHT22;49407;51.388;0.048;2022-12-04T08:36:20;5.40;99.90
63283;DHT22;49407;51.388;0.048;2022-12-04T08:41:58;5.40;99.90
63283;DHT22;49407;51.388;0.048;2022-12-04T08:44:25;5.40;99.90
63283;DHT22;49407;51.388;0.048;2022-12-04T08:46:54;5.50;99.90
63283;DHT22;49407;51.388;0.048;2022-12-04T08:49:21;5.40;99.90
63283;DHT22;49407;51.388;0.048;2022-12-04T08:51:47;5.40;99.90
63283;DHT22;49407;51.388;0.048;2022-12-04T08:54:14;5.40;99.90
63283;DHT22;49407;51.388;0.048;2022-12-04T08:56:42;5.50;99.90
63283;DHT22;49407;51.388;0.048;2022-12-04T08:59:11;5.50;99.90
63283;DHT22;49407;51.388;0.048;2022-12-04T09:01:38;5.50;99.90
63283;DHT22;49407;51.388;0.048;2022-12-04T09:04:05;5.50;99.90
63283;DHT22;49407;51.388;0.048;2022-12-04T09:06:37;5.50;99.90
63283;DHT22;49407;51.388;0.048;2022-12-04T09:09:05;5.60;99.90
63283;DHT22;49407;51.388;0.048;2022-12-04T09:11:32;5.60;99.90
63283;DHT22;49407;51.388;0.048;2022-12-04T09:14:01;5.60;99.90
63283;DHT22;49407;51.388;0.048;2022-12-04T09:16:28;5.60;99.90
63283;DHT22;49407;51.388;0.048;2022-12-04T09:18:55;5.60;99.90
63283;DHT22;49407;51.388;0.048;2022-12-04T09:21:24;5.60;99.90
63283;DHT22;49407;51.388;0.048;2022-12-04T09:23:51;5.60;99.90
63283;DHT22;49407;51.388;0.048;2022-12-04T09:26:30;5.50;99.90
63283;DHT22;49407;51.388;0.048;2022-12-04T09:28:59;5.50;99.90
63283;DHT22;49407;51.388;0.048;2022-12-04T09:31:26;5.60;99.90
63283;DHT22;49407;51.388;0.048;2022-12-04T09:33:53;5.70;99.90
63283;DHT22;49407;51.388;0.048;2022-12-04T09:36:20;5.60;99.90
63283;DHT22;49407;51.388;0.048;2022-12-04T09:39:06;5.60;99.90
63283;DHT22;49407;51.388;0.048;2022-12-04T09:44:40;5.60;99.90
63283;DHT22;49407;51.388;0.048;2022-12-04T09:47:30;5.60;99.90
63283;DHT22;49407;51.388;0.048;2022-12-04T09:50:22;5.70;99.90
63283;DHT22;49407;51.388;0.048;2022-12-04T09:52:59;5.60;99.90
63283;DHT22;49407;51.388;0.048;2022-12-04T10:01:05;5.70;99.90
63283;DHT22;49407;51.388;0.048;2022-12-04T10:03:42;5.70;99.90
63283;DHT22;49407;51.388;0.048;2022-12-04T10:06:23;5.70;99.90
63283;DHT22;49407;51.388;0.048;2022-12-04T10:09:08;5.70;99.90
63283;DHT22;49407;51.388;0.048;2022-12-04T10:11:53;5.70;99.90
63283;DHT22;49407;51.388;0.048;2022-12-04T10:17:44;5.80;99.90
63283;DHT22;49407;51.388;0.048;2022-12-04T10:23:12;5.80;99.90
63283;DHT22;49407;51.388;0.048;2022-12-04T10:25:43;5.80;99.90
63283;DHT22;49407;51.388;0.048;2022-12-04T10:28:26;5.90;99.90
63283;DHT22;49407;51.388;0.048;2022-12-04T10:30:59;5.90;99.90
63283;DHT22;49407;51.388;0.048;2022-12-04T10:33:40;5.90;99.90
63283;DHT22;49407;51.388;0.048;2022-12-04T10:36:14;5.90;99.90
63283;DHT22;49407;51.388;0.048;2022-12-04T10:39:15;6.00;99.90
63283;DHT22;49407;51.388;0.048;2022-12-04T10:44:50;6.00;99.90
63283;DHT22;49407;51.388;0.048;2022-12-04T10:47:19;6.10;99.90
63283;DHT22;49407;51.388;0.048;2022-12-04T10:49:47;6.10;99.90
63283;DHT22;49407;51.388;0.048;2022-12-04T10:52:15;6.10;99.90
63283;DHT22;49407;51.388;0.048;2022-12-04T10:54:57;6.10;99.90
63283;DHT22;49407;51.388;0.048;2022-12-04T10:57:50;6.20;99.90
63283;DHT22;49407;51.388;0.048;2022-12-04T11:00:29;6.20;99.90
63283;DHT22;49407;51.388;0.048;2022-12-04T11:03:00;6.20;99.90
63283;DHT22;49407;51.388;0.048;2022-12-04T11:05:31;6.20;99.90
63283;DHT22;49407;51.388;0.048;2022-12-04T11:08:22;6.20;99.90
63283;DHT22;49407;51.388;0.048;2022-12-04T11:11:00;6.20;99.90
63283;DHT22;49407;51.388;0.048;2022-12-04T11:13:28;6.30;99.90
63283;DHT22;49407;51.388;0.048;2022-12-04T11:15:56;6.20;99.90
63283;DHT22;49407;51.388;0.048;2022-12-04T11:18:27;6.20;99.90
63283;DHT22;49407;51.388;0.048;2022-12-04T11:20:57;6.20;99.90
63283;DHT22;49407;51.388;0.048;2022-12-04T11:23:30;6.20;99.90
63283;DHT22;49407;51.388;0.048;2022-12-04T11:25:58;6.30;99.90
63283;DHT22;49407;51.388;0.048;2022-12-04T11:31:39;6.40;99.90
63283;DHT22;49407;51.388;0.048;2022-12-04T11:34:07;6.30;99.90
63283;DHT22;49407;51.388;0.048;2022-12-04T11:36:42;6.40;99.90
63283;DHT22;49407;51.388;0.048;2022-12-04T11:39:21;6.40;99.90
63283;DHT22;49407;51.388;0.048;2022-12-04T11:42:00;6.30;99.90
63283;DHT22;49407;51.388;0.048;2022-12-04T11:44:31;6.40;99.90
63283;DHT22;49407;51.388;0.048;2022-12-04T11:47:04;6.40;99.90
63283;DHT22;49407;51.388;0.048;2022-12-04T11:49:32;6.40;99.90
63283;DHT22;49407;51.388;0.048;2022-12-04T11:57:46;6.40;99.90
63283;DHT22;49407;51.388;0.048;2022-12-04T12:00:18;6.50;99.90
63283;DHT22;49407;51.388;0.048;2022-12-04T12:03:14;6.50;99.90
63283;DHT22;49407;51.388;0.048;2022-12-04T12:08:48;6.50;99.90
63283;DHT22;49407;51.388;0.048;2022-12-04T12:11:24;6.50;99.90
63283;DHT22;49407;51.388;0.048;2022-12-04T12:14:21;6.50;99.90
63283;DHT22;49407;51.388;0.048;2022-12-04T12:16:55;6.50;99.90
63283;DHT22;49407;51.388;0.048;2022-12-04T12:25:10;6.60;99.90
63283;DHT22;49407;51.388;0.048;2022-12-04T12:28:38;6.60;99.90
63283;DHT22;49407;51.388;0.048;2022-12-04T12:33:22;6.60;99.90
63283;DHT22;49407;51.388;0.048;2022-12-04T12:36:07;6.70;99.90
63283;DHT22;49407;51.388;0.048;2022-12-04T12:41:22;6.70;99.90
63283;DHT22;49407;51.388;0.048;2022-12-04T12:44:18;6.70;99.90
63283;DHT22;49407;51.388;0.048;2022-12-04T12:46:55;6.70;99.90
63283;DHT22;49407;51.388;0.048;2022-12-04T12:55:13;6.70;99.90
63283;DHT22;49407;51.388;0.048;2022-12-04T12:57:48;6.70;99.90
63283;DHT22;49407;51.388;0.048;2022-12-04T13:00:22;6.70;99.90
63283;DHT22;49407;51.388;0.048;2022-12-04T13:05:49;6.70;99.90
63283;DHT22;49407;51.388;0.048;2022-12-04T13:12:23;6.70;99.90
63283;DHT22;49407;51.388;0.048;2022-12-04T13:14:51;6.70;99.90
63283;DHT22;49407;51.388;0.048;2022-12-04T13:17:49;6.70;99.90
63283;DHT22;49407;51.388;0.048;2022-12-04T13:20:25;6.70;99.90
63283;DHT22;49407;51.388;0.048;2022-12-04T13:32:43;6.70;99.90
63283;DHT22;49407;51.388;0.048;2022-12-04T13:40:51;6.70;99.90
63283;DHT22;49407;51.388;0.048;2022-12-04T13:51:49;6.70;99.90
63283;DHT22;49407;51.388;0.048;2022-12-04T14:02:53;6.60;99.90
63283;DHT22;49407;51.388;0.048;2022-12-04T14:05:41;6.60;99.90
63283;DHT22;49407;51.388;0.048;2022-12-04T14:13:26;6.70;99.90
63283;DHT22;49407;51.388;0.048;2022-12-04T14:16:06;6.70;99.90
63283;DHT22;49407;51.388;0.048;2022-12-04T14:18:58;6.70;99.90
63283;DHT22;49407;51.388;0.048;2022-12-04T14:21:41;6.70;99.90
63283;DHT22;49407;51.388;0.048;2022-12-04T14:24:37;6.60;99.90
63283;DHT22;49407;51.388;0.048;2022-12-04T14:32:43;6.60;99.90
63283;DHT22;49407;51.388;0.048;2022-12-04T14:35:21;6.50;99.90
63283;DHT22;49407;51.388;0.048;2022-12-04T14:37:54;6.50;99.90
63283;DHT22;49407;51.388;0.048;2022-12-04T14:40:24;6.60;99.90
63283;DHT22;49407;51.388;0.048;2022-12-04T14:43:26;6.60;99.90
63283;DHT22;49407;51.388;0.048;2022-12-04T14:51:39;6.50;99.90
63283;DHT22;49407;51.388;0.048;2022-12-04T14:57:05;6.50;99.90
63283;DHT22;49407;51.388;0.048;2022-12-04T14:59:44;6.50;99.90
63283;DHT22;49407;51.388;0.048;2022-12-04T15:02:18;6.50;99.90
63283;DHT22;49407;51.388;0.048;2022-12-04T15:04:47;6.50;99.90
63283;DHT22;49407;51.388;0.048;2022-12-04T15:07:25;6.50;99.90
63283;DHT22;49407;51.388;0.048;2022-12-04T15:09:56;6.40;99.90
63283;DHT22;49407;51.388;0.048;2022-12-04T15:12:49;6.40;99.90
63283;DHT22;49407;51.388;0.048;2022-12-04T15:15:26;6.40;99.90
63283;DHT22;49407;51.388;0.048;2022-12-04T15:18:02;6.30;99.90
63283;DHT22;49407;51.388;0.048;2022-12-04T15:20:33;6.40;99.90
63283;DHT22;49407;51.388;0.048;2022-12-04T15:23:05;6.40;99.90
63283;DHT22;49407;51.388;0.048;2022-12-04T15:26:10;6.40;99.90
63283;DHT22;49407;51.388;0.048;2022-12-04T15:31:44;6.30;99.90
63283;DHT22;49407;51.388;0.048;2022-12-04T15:34:20;6.30;99.90
63283;DHT22;49407;51.388;0.048;2022-12-04T15:37:03;6.30;99.90
63283;DHT22;49407;51.388;0.048;2022-12-04T15:39:34;6.30;99.90
63283;DHT22;49407;51.388;0.048;2022-12-04T15:42:05;6.20;99.90
63283;DHT22;49407;51.388;0.048;2022-12-04T15:44:34;6.20;99.90
63283;DHT22;49407;51.388;0.048;2022-12-04T15:47:16;6.20;99.90
63283;DHT22;49407;51.388;0.048;2022-12-04T15:49:45;6.10;99.90
63283;DHT22;49407;51.388;0.048;2022-12-04T15:52:15;6.10;99.90
63283;DHT22;49407;51.388;0.048;2022-12-04T15:54:56;6.20;99.90
63283;DHT22;49407;51.388;0.048;2022-12-04T15:57:49;6.20;99.90
63283;DHT22;49407;51.388;0.048;2022-12-04T16:00:39;6.20;99.90
63283;DHT22;49407;51.388;0.048;2022-12-04T16:06:06;6.10;99.90
63283;DHT22;49407;51.388;0.048;2022-12-04T16:09:00;6.10;99.90
63283;DHT22;49407;51.388;0.048;2022-12-04T16:11:38;6.10;99.90
63283;DHT22;49407;51.388;0.048;2022-12-04T16:16:46;6.10;99.90
63283;DHT22;49407;51.388;0.048;2022-12-04T16:19:35;6.10;99.90
63283;DHT22;49407;51.388;0.048;2022-12-04T16:22:14;6.00;99.90
63283;DHT22;49407;51.388;0.048;2022-12-04T16:24:46;6.00;99.90
63283;DHT22;49407;51.388;0.048;2022-12-04T16:27:19;5.90;99.90
63283;DHT22;49407;51.388;0.048;2022-12-04T16:29:49;6.00;99.90
63283;DHT22;49407;51.388;0.048;2022-12-04T16:32:20;6.00;99.90
63283;DHT22;49407;51.388;0.048;2022-12-04T16:34:48;6.00;99.90
63283;DHT22;49407;51.388;0.048;2022-12-04T16:37:19;6.00;99.90
63283;DHT22;49407;51.388;0.048;2022-12-04T16:39:47;5.90;99.90
63283;DHT22;49407;51.388;0.048;2022-12-04T16:42:17;5.90;99.90
63283;DHT22;49407;51.388;0.048;2022-12-04T16:44:44;5.90;99.90
63283;DHT22;49407;51.388;0.048;2022-12-04T16:47:12;5.90;99.90
63283;DHT22;49407;51.388;0.048;2022-12-04T16:49:40;5.90;99.90
63283;DHT22;49407;51.388;0.048;2022-12-04T16:52:09;5.90;99.90
63283;DHT22;49407;51.388;0.048;2022-12-04T16:54:37;5.90;99.90
63283;DHT22;49407;51.388;0.048;2022-12-04T16:57:06;5.90;99.90
63283;DHT22;49407;51.388;0.048;2022-12-04T16:59:33;5.80;99.90
63283;DHT22;49407;51.388;0.048;2022-12-04T17:02:01;5.70;99.90
63283;DHT22;49407;51.388;0.048;2022-12-04T17:04:30;5.80;99.90
63283;DHT22;49407;51.388;0.048;2022-12-04T17:06:57;5.70;99.90
63283;DHT22;49407;51.388;0.048;2022-12-04T17:09:24;5.80;99.90
63283;DHT22;49407;51.388;0.048;2022-12-04T17:11:51;5.70;99.90
63283;DHT22;49407;51.388;0.048;2022-12-04T17:14:17;5.70;99.90
63283;DHT22;49407;51.388;0.048;2022-12-04T17:16:45;5.60;99.90
63283;DHT22;49407;51.388;0.048;2022-12-04T17:19:13;5.70;99.90
63283;DHT22;49407;51.388;0.048;2022-12-04T17:21:40;5.70;99.90
63283;DHT22;49407;51.388;0.048;2022-12-04T17:24:07;5.70;99.90
63283;DHT22;49407;51.388;0.048;2022-12-04T17:26:35;5.70;99.90
63283;DHT22;49407;51.388;0.048;2022-12-04T17:29:02;5.60;99.90
63283;DHT22;49407;51.388;0.048;2022-12-04T17:31:29;5.60;99.90
63283;DHT22;49407;51.388;0.048;2022-12-04T17:33:57;5.60;99.90
63283;DHT22;49407;51.388;0.048;2022-12-04T17:36:25;5.60;99.90
63283;DHT22;49407;51.388;0.048;2022-12-04T17:38:57;5.60;99.90
63283;DHT22;49407;51.388;0.048;2022-12-04T17:41:25;5.50;99.90
63283;DHT22;49407;51.388;0.048;2022-12-04T17:43:52;5.50;99.90
63283;DHT22;49407;51.388;0.048;2022-12-04T17:46:21;5.50;99.90
63283;DHT22;49407;51.388;0.048;2022-12-04T17:48:51;5.60;99.90
63283;DHT22;49407;51.388;0.048;2022-12-04T17:51:22;5.60;99.90
63283;DHT22;49407;51.388;0.048;2022-12-04T17:53:50;5.50;99.90
63283;DHT22;49407;51.388;0.048;2022-12-04T17:56:21;5.50;99.90
63283;DHT22;49407;51.388;0.048;2022-12-04T17:58:49;5.50;99.90
63283;DHT22;49407;51.388;0.048;2022-12-04T18:01:19;5.40;99.90
63283;DHT22;49407;51.388;0.048;2022-12-04T18:03:50;5.50;99.90
63283;DHT22;49407;51.388;0.048;2022-12-04T18:06:26;5.40;99.90
63283;DHT22;49407;51.388;0.048;2022-12-04T18:08:55;5.50;99.90
63283;DHT22;49407;51.388;0.048;2022-12-04T18:11:24;5.40;99.90
63283;DHT22;49407;51.388;0.048;2022-12-04T18:14:03;5.40;99.90
63283;DHT22;49407;51.388;0.048;2022-12-04T18:16:41;5.50;99.90
63283;DHT22;49407;51.388;0.048;2022-12-04T18:19:09;5.40;99.90
63283;DHT22;49407;51.388;0.048;2022-12-04T18:21:36;5.40;99.90
63283;DHT22;49407;51.388;0.048;2022-12-04T18:24:04;5.40;99.90
63283;DHT22;49407;51.388;0.048;2022-12-04T18:26:34;5.40;99.90
63283;DHT22;49407;51.388;0.048;2022-12-04T18:29:01;5.50;99.90
63283;DHT22;49407;51.388;0.048;2022-12-04T18:31:29;5.40;99.90
63283;DHT22;49407;51.388;0.048;2022-12-04T18:33:57;5.40;99.90
63283;DHT22;49407;51.388;0.048;2022-12-04T18:36:27;5.50;99.90
63283;DHT22;49407;51.388;0.048;2022-12-04T18:39:00;5.40;99.90
63283;DHT22;49407;51.388;0.048;2022-12-04T18:41:28;5.50;99.90
63283;DHT22;49407;51.388;0.048;2022-12-04T18:43:56;5.40;99.90
63283;DHT22;49407;51.388;0.048;2022-12-04T18:46:23;5.40;99.90
63283;DHT22;49407;51.388;0.048;2022-12-04T18:48:53;5.40;99.90
63283;DHT22;49407;51.388;0.048;2022-12-04T18:51:26;5.40;99.90
63283;DHT22;49407;51.388;0.048;2022-12-04T18:53:58;5.50;99.90
63283;DHT22;49407;51.388;0.048;2022-12-04T18:56:26;5.50;99.90
63283;DHT22;49407;51.388;0.048;2022-12-04T18:59:00;5.40;99.90